Time;durP1;ratioP1;P1;durP2;ratioP2;P2;SDS_P1;SDS_P2;PMS_P1;PMS_P2;Temp;Humidity;BMP_temperature;BMP_pressure;BME280_temperature;BME280_humidity;BME280_pressure;Samples;Min_cycle;Max_cycle;Signal;HPM_P1;HPM_P2
2021/05/19 00:01:46;;;;;;;0.55;0.50;;;21.90;52.20;;;;;;6308542;28;20024;-65
2021/05/19 00:04:46;;;;;;;1.33;0.85;;;21.90;52.20;;;;;;6313432;28;20025;-65
2021/05/19 00:07:47;;;;;;;1.48;0.85;;;22.00;52.30;;;;;;6292859;28;20532;-65
2021/05/19 00:10:48;;;;;;;1.33;0.70;;;21.90;52.20;;;;;;6301220;28;20130;-65
2021/05/19 00:13:48;;;;;;;0.70;0.60;;;21.90;52.20;;;;;;6317584;28;20035;-64
2021/05/19 00:16:50;;;;;;;1.40;0.80;;;21.90;52.10;;;;;;6301083;28;20040;-65
2021/05/19 00:19:51;;;;;;;1.30;0.90;;;21.90;52.20;;;;;;6267526;28;20031;-65
2021/05/19 00:22:52;;;;;;;1.40;1.00;;;21.90;52.20;;;;;;6296780;28;20115;-66
2021/05/19 00:25:53;;;;;;;1.40;0.70;;;21.90;52.10;;;;;;6299389;28;20133;-65
2021/05/19 00:28:55;;;;;;;1.30;0.75;;;21.90;52.20;;;;;;6316323;28;20028;-66
2021/05/19 00:31:56;;;;;;;1.02;0.70;;;21.90;52.20;;;;;;6316936;28;20034;-66
2021/05/19 00:34:56;;;;;;;0.90;0.70;;;21.90;52.10;;;;;;6317195;28;20066;-66
2021/05/19 00:37:58;;;;;;;1.13;0.60;;;21.90;52.10;;;;;;6315705;28;20109;-66
2021/05/19 00:40:59;;;;;;;0.70;0.57;;;22.00;52.30;;;;;;6311632;28;20029;-66
2021/05/19 00:44:05;;;;;;;1.73;0.95;;;21.90;52.20;;;;;;6290872;28;20028;-65
2021/05/19 00:47:06;;;;;;;1.13;0.70;;;21.90;52.20;;;;;;6306217;28;20389;-65
2021/05/19 00:50:13;;;;;;;1.63;0.75;;;21.90;52.20;;;;;;6315154;28;20353;-65
2021/05/19 00:53:14;;;;;;;1.92;0.63;;;21.90;52.90;;;;;;6291992;28;20028;-66
2021/05/19 00:56:15;;;;;;;1.25;0.68;;;21.90;52.10;;;;;;6292357;28;20074;-65
2021/05/19 00:59:17;;;;;;;1.10;0.70;;;21.90;52.20;;;;;;6292220;28;20021;-65
2021/05/19 01:02:19;;;;;;;1.08;0.82;;;21.90;52.10;;;;;;6305238;28;20027;-65
2021/05/19 01:05:28;;;;;;;1.30;0.70;;;21.90;52.20;;;;;;6316729;28;20412;-66
2021/05/19 01:11:47;;;;;;;0.82;0.60;;;21.90;52.20;;;;;;6316350;28;20028;-65
2021/05/19 01:14:49;;;;;;;0.90;0.68;;;21.90;52.20;;;;;;6311385;28;20404;-65
2021/05/19 01:17:50;;;;;;;0.90;0.65;;;21.90;52.10;;;;;;6304775;28;20090;-66
2021/05/19 01:20:51;;;;;;;0.68;0.60;;;21.90;52.20;;;;;;6314147;28;20032;-65
2021/05/19 01:23:52;;;;;;;1.65;0.82;;;21.90;52.10;;;;;;6314074;28;20227;-66
2021/05/19 01:26:54;;;;;;;1.08;0.60;;;21.90;52.10;;;;;;6316496;28;20032;-65
2021/05/19 01:29:57;;;;;;;1.10;0.70;;;21.90;52.10;;;;;;6311881;28;20096;-65
2021/05/19 01:32:58;;;;;;;1.67;0.88;;;21.90;52.10;;;;;;6316168;28;20288;-65
2021/05/19 01:35:59;;;;;;;1.02;0.70;;;21.90;52.10;;;;;;6315006;28;20028;-65
2021/05/19 01:39:00;;;;;;;0.90;0.60;;;21.90;52.10;;;;;;6314472;28;20416;-66
2021/05/19 01:42:00;;;;;;;1.20;0.75;;;21.90;52.10;;;;;;6319112;28;20028;-65
2021/05/19 01:45:01;;;;;;;1.20;0.75;;;21.90;52.10;;;;;;6319627;28;20496;-66
2021/05/19 01:48:02;;;;;;;1.08;0.75;;;21.90;52.10;;;;;;6320871;28;20027;-65
2021/05/19 01:51:05;;;;;;;0.77;0.50;;;21.90;52.20;;;;;;6321275;28;20358;-65
2021/05/19 01:54:08;;;;;;;0.68;0.65;;;21.90;52.10;;;;;;6320849;28;20034;-66
2021/05/19 01:57:10;;;;;;;1.30;0.70;;;21.90;52.10;;;;;;6311718;28;20016;-65
2021/05/19 02:00:12;;;;;;;0.57;0.50;;;21.90;52.10;;;;;;6319596;28;20024;-65
2021/05/19 02:03:13;;;;;;;0.63;0.60;;;21.90;52.10;;;;;;6319817;28;20111;-65
2021/05/19 02:06:14;;;;;;;0.60;0.50;;;21.90;52.10;;;;;;6320853;28;20096;-66
2021/05/19 02:09:15;;;;;;;0.75;0.65;;;21.90;52.10;;;;;;6315551;28;20496;-65
2021/05/19 02:12:16;;;;;;;1.38;0.65;;;21.90;52.10;;;;;;6320377;28;20024;-65
2021/05/19 02:15:18;;;;;;;1.08;0.60;;;21.90;52.10;;;;;;6293763;28;20029;-66
2021/05/19 02:18:18;;;;;;;1.23;0.57;;;21.90;52.10;;;;;;6289414;28;20131;-65
2021/05/19 02:21:19;;;;;;;1.05;0.80;;;21.90;52.10;;;;;;6314097;28;20097;-65
2021/05/19 02:24:19;;;;;;;1.02;0.70;;;21.90;52.10;;;;;;6295403;28;20669;-65
2021/05/19 02:27:20;;;;;;;0.82;0.70;;;21.90;52.10;;;;;;6294289;28;20493;-65
2021/05/19 02:30:21;;;;;;;1.35;0.90;;;21.90;52.10;;;;;;6317723;28;20035;-65
2021/05/19 02:33:22;;;;;;;0.90;0.60;;;21.90;52.10;;;;;;6320052;28;20054;-65
2021/05/19 02:36:23;;;;;;;0.50;0.50;;;21.90;52.10;;;;;;6319843;28;20032;-65
2021/05/19 02:39:23;;;;;;;0.70;0.55;;;21.90;52.10;;;;;;6318334;28;20115;-67
2021/05/19 02:42:24;;;;;;;1.25;0.73;;;21.90;52.10;;;;;;6319775;28;20077;-65
2021/05/19 02:45:24;;;;;;;0.85;0.60;;;21.90;52.10;;;;;;6319854;28;20024;-65
2021/05/19 02:48:25;;;;;;;0.60;0.43;;;21.90;52.10;;;;;;6319729;28;20024;-65
2021/05/19 02:51:25;;;;;;;0.88;0.60;;;21.90;52.10;;;;;;6319345;28;20052;-65
2021/05/19 02:54:26;;;;;;;1.25;0.60;;;21.90;52.10;;;;;;6318163;28;20032;-65
2021/05/19 02:57:27;;;;;;;0.90;0.60;;;21.90;52.10;;;;;;6304991;28;20055;-65
2021/05/19 03:00:27;;;;;;;0.73;0.57;;;21.90;52.10;;;;;;6313806;28;20028;-65
2021/05/19 03:03:28;;;;;;;0.82;0.70;;;21.90;52.10;;;;;;6315405;28;20386;-65
2021/05/19 03:06:29;;;;;;;0.73;0.60;;;21.90;52.10;;;;;;6294238;28;20020;-65
2021/05/19 03:09:30;;;;;;;1.08;0.52;;;21.90;52.10;;;;;;6302907;28;20024;-65
2021/05/19 03:12:30;;;;;;;0.93;0.73;;;21.90;52.10;;;;;;6320096;28;20028;-65
2021/05/19 03:15:32;;;;;;;1.27;0.68;;;21.90;52.10;;;;;;6318967;28;20028;-65
2021/05/19 03:18:33;;;;;;;1.40;0.50;;;21.90;52.10;;;;;;6275588;28;20082;-65
2021/05/19 03:21:34;;;;;;;0.60;0.60;;;21.90;52.10;;;;;;6310321;28;20063;-65
2021/05/19 03:24:34;;;;;;;0.93;0.60;;;21.90;52.10;;;;;;6293443;28;20459;-65
2021/05/19 03:27:35;;;;;;;0.50;0.50;;;21.90;52.10;;;;;;6292230;28;20556;-65
2021/05/19 03:30:36;;;;;;;1.00;0.50;;;21.90;52.10;;;;;;6308416;28;20069;-65
2021/05/19 03:33:37;;;;;;;0.60;0.50;;;21.90;52.10;;;;;;6316891;28;20499;-65
2021/05/19 03:36:37;;;;;;;0.93;0.55;;;21.90;52.10;;;;;;6294803;28;20024;-65
2021/05/19 03:39:38;;;;;;;0.45;0.45;;;21.90;52.10;;;;;;6298791;28;20024;-65
2021/05/19 03:42:39;;;;;;;0.75;0.55;;;21.90;52.10;;;;;;6304112;28;20040;-65
2021/05/19 03:45:40;;;;;;;0.60;0.50;;;21.90;52.10;;;;;;6293118;28;20441;-65
2021/05/19 03:48:40;;;;;;;1.40;0.70;;;21.90;52.10;;;;;;6291420;28;20478;-65
2021/05/19 03:51:43;;;;;;;0.47;0.45;;;21.90;52.10;;;;;;6314131;28;20048;-65
2021/05/19 03:54:44;;;;;;;0.60;0.60;;;21.90;52.10;;;;;;6317763;28;20543;-65
2021/05/19 03:57:45;;;;;;;0.73;0.63;;;21.90;52.10;;;;;;6299104;28;20051;-65
2021/05/19 04:00:45;;;;;;;0.68;0.60;;;21.90;52.00;;;;;;6305076;28;20013;-65
2021/05/19 04:03:48;;;;;;;0.57;0.47;;;21.90;52.30;;;;;;6291819;28;20485;-65
2021/05/19 04:06:49;;;;;;;0.50;0.50;;;21.90;52.00;;;;;;6292501;28;20020;-65
2021/05/19 04:09:49;;;;;;;0.82;0.63;;;21.90;52.10;;;;;;6295364;28;20035;-65
2021/05/19 04:12:51;;;;;;;0.82;0.50;;;21.90;52.10;;;;;;6317399;28;20039;-65
2021/05/19 04:15:51;;;;;;;0.50;0.50;;;21.90;52.00;;;;;;6317185;28;20210;-65
2021/05/19 04:18:51;;;;;;;0.80;0.50;;;21.90;52.10;;;;;;6292848;28;20121;-65
2021/05/19 04:21:52;;;;;;;1.10;0.75;;;21.90;52.00;;;;;;6300478;28;20390;-65
2021/05/19 04:24:52;;;;;;;0.65;0.65;;;21.90;52.10;;;;;;6292278;28;20501;-66
2021/05/19 04:27:53;;;;;;;0.90;0.70;;;21.90;52.00;;;;;;6292440;28;20103;-66
2021/05/19 04:30:54;;;;;;;1.13;0.77;;;21.90;52.00;;;;;;6299723;28;20040;-66
2021/05/19 04:33:54;;;;;;;1.00;0.70;;;21.90;52.10;;;;;;6317382;28;20043;-65
2021/05/19 04:36:55;;;;;;;0.63;0.63;;;21.90;52.00;;;;;;6306214;28;20043;-65
2021/05/19 04:39:55;;;;;;;1.33;0.88;;;21.90;52.10;;;;;;6292426;28;20083;-66
2021/05/19 04:42:56;;;;;;;0.68;0.60;;;21.90;52.10;;;;;;6317623;28;20224;-66
2021/05/19 04:45:57;;;;;;;0.50;0.50;;;21.90;52.10;;;;;;6317504;28;20032;-66
2021/05/19 04:48:59;;;;;;;1.83;0.70;;;21.90;52.00;;;;;;6317497;28;20028;-65
2021/05/19 04:52:00;;;;;;;1.17;0.80;;;21.90;52.00;;;;;;6316487;28;20058;-65
2021/05/19 04:55:04;;;;;;;1.60;0.82;;;21.90;52.00;;;;;;6317016;28;20028;-65
2021/05/19 04:58:05;;;;;;;0.60;0.50;;;21.90;52.00;;;;;;6293277;28;20476;-65
2021/05/19 05:01:06;;;;;;;0.75;0.70;;;21.90;52.00;;;;;;6306998;28;20108;-66
2021/05/19 05:04:07;;;;;;;0.90;0.70;;;21.90;52.00;;;;;;6266700;28;20229;-66
2021/05/19 05:07:07;;;;;;;1.02;0.75;;;21.90;52.00;;;;;;6280632;28;20052;-65
2021/05/19 05:10:09;;;;;;;1.10;0.80;;;21.90;52.00;;;;;;6291221;28;20283;-65
2021/05/19 05:13:10;;;;;;;0.70;0.70;;;21.90;52.00;;;;;;6309305;28;20083;-66
2021/05/19 05:16:12;;;;;;;1.00;0.82;;;21.90;52.00;;;;;;6312851;28;20028;-66
2021/05/19 05:19:13;;;;;;;0.82;0.65;;;21.90;52.00;;;;;;6316285;28;20020;-66
2021/05/19 05:22:13;;;;;;;0.90;0.70;;;21.90;52.00;;;;;;6303275;28;20024;-65
2021/05/19 05:25:14;;;;;;;0.80;0.80;;;21.90;52.00;;;;;;6291474;28;20056;-68
2021/05/19 05:28:14;;;;;;;1.63;1.00;;;21.90;52.60;;;;;;6280718;28;20143;-68
2021/05/19 05:31:15;;;;;;;2.35;1.95;;;21.90;51.70;;;;;;6289491;28;20096;-68
2021/05/19 05:34:16;;;;;;;4.72;1.77;;;21.90;51.40;;;;;;6291157;28;20507;-68
2021/05/19 05:37:17;;;;;;;3.60;2.70;;;21.90;50.90;;;;;;6294297;28;20434;-68
2021/05/19 05:40:17;;;;;;;4.93;2.60;;;21.80;48.60;;;;;;6289432;28;20052;-68
2021/05/19 05:43:18;;;;;;;3.25;1.92;;;21.80;48.50;;;;;;6300880;28;20061;-68
2021/05/19 05:46:18;;;;;;;5.53;2.35;;;21.80;48.50;;;;;;6292741;28;20405;-68
2021/05/19 05:49:20;;;;;;;2.95;1.98;;;21.80;48.30;;;;;;6313522;28;20063;-68
2021/05/19 05:52:21;;;;;;;3.20;2.22;;;21.80;48.90;;;;;;6299758;28;20040;-68
2021/05/19 05:55:22;;;;;;;2.92;1.92;;;21.80;48.50;;;;;;6314906;28;20059;-68
2021/05/19 05:58:22;;;;;;;3.53;2.10;;;21.80;48.40;;;;;;6303207;28;20477;-68
2021/05/19 06:01:23;;;;;;;2.78;2.28;;;21.70;48.50;;;;;;6282738;28;20492;-69
2021/05/19 06:04:24;;;;;;;5.03;2.40;;;21.70;47.20;;;;;;6303449;28;20257;-66
2021/05/19 06:07:24;;;;;;;6.65;2.17;;;21.70;47.80;;;;;;6294900;28;20028;-66
2021/05/19 06:10:25;;;;;;;3.78;2.03;;;21.70;46.10;;;;;;6293129;28;20031;-66
2021/05/19 06:13:26;;;;;;;7.35;1.90;;;21.80;46.50;;;;;;6302645;28;20186;-66
2021/05/19 06:16:27;;;;;;;6.45;1.90;;;21.80;46.70;;;;;;6301481;28;20044;-66
2021/05/19 06:19:27;;;;;;;3.28;1.75;;;21.80;47.20;;;;;;6291721;28;20100;-66
2021/05/19 06:22:28;;;;;;;7.22;1.83;;;21.80;47.30;;;;;;6289228;28;20036;-66
2021/05/19 06:25:30;;;;;;;3.15;1.50;;;21.80;47.50;;;;;;6300048;28;20428;-66
2021/05/19 06:28:30;;;;;;;8.00;1.60;;;21.80;47.90;;;;;;6295941;28;20166;-66
2021/05/19 06:31:31;;;;;;;6.55;1.70;;;21.80;47.90;;;;;;6298212;28;20481;-69
2021/05/19 06:34:32;;;;;;;8.32;1.50;;;21.80;48.50;;;;;;6304427;28;20068;-66
2021/05/19 06:37:32;;;;;;;3.15;2.05;;;21.80;48.30;;;;;;6294607;28;20377;-66
2021/05/19 06:40:33;;;;;;;3.35;1.65;;;21.80;47.40;;;;;;6320578;28;20446;-66
2021/05/19 06:43:34;;;;;;;2.83;2.05;;;21.80;47.80;;;;;;6306004;28;20477;-66
2021/05/19 06:46:35;;;;;;;12.48;5.43;;;21.80;48.60;;;;;;6295803;28;20032;-67
2021/05/19 06:49:36;;;;;;;15.90;11.00;;;21.80;48.60;;;;;;6294953;28;20029;-66
2021/05/19 06:52:37;;;;;;;17.33;12.25;;;21.80;49.00;;;;;;6296996;28;20086;-66
2021/05/19 06:55:39;;;;;;;10.50;6.70;;;21.80;49.00;;;;;;6320185;28;20020;-66
2021/05/19 06:58:39;;;;;;;10.32;5.28;;;21.80;49.20;;;;;;6302753;28;20357;-66
2021/05/19 07:01:40;;;;;;;12.18;8.30;;;21.80;49.30;;;;;;6321623;28;20050;-66
2021/05/19 07:04:41;;;;;;;28.45;13.18;;;21.80;49.50;;;;;;6310401;28;20508;-66
2021/05/19 07:07:42;;;;;;;56.42;13.90;;;21.80;49.30;;;;;;6321683;28;20024;-66
2021/05/19 07:10:43;;;;;;;85.93;19.20;;;21.90;49.20;;;;;;6309836;28;20033;-66
2021/05/19 07:13:43;;;;;;;73.22;17.05;;;21.90;49.50;;;;;;6297044;28;20094;-66
2021/05/19 07:16:54;;;;;;;43.08;13.70;;;21.80;49.60;;;;;;6292748;28;20468;-66
2021/05/19 07:19:55;;;;;;;35.70;13.43;;;21.90;49.80;;;;;;6303055;28;20421;-66
2021/05/19 07:22:59;;;;;;;43.15;13.25;;;21.90;49.90;;;;;;6296168;28;20024;-66
2021/05/19 07:26:06;;;;;;;30.60;13.27;;;21.90;50.00;;;;;;6316076;28;20051;-67
2021/05/19 07:29:08;;;;;;;30.55;12.82;;;21.90;50.10;;;;;;6278253;28;20040;-67
2021/05/19 07:32:09;;;;;;;31.60;12.50;;;21.90;50.10;;;;;;6302268;28;20029;-67
2021/05/19 07:35:10;;;;;;;22.30;12.27;;;21.90;50.20;;;;;;6306823;28;20071;-67
2021/05/19 07:38:11;;;;;;;20.02;10.27;;;21.90;50.20;;;;;;6308608;28;20040;-67
2021/05/19 07:41:12;;;;;;;27.85;11.57;;;21.90;50.30;;;;;;6295626;28;20084;-67
2021/05/19 07:44:12;;;;;;;22.58;10.82;;;21.90;50.30;;;;;;6296874;28;20029;-67
2021/05/19 07:47:13;;;;;;;24.20;9.85;;;21.90;50.30;;;;;;6320826;28;20463;-67
2021/05/19 07:50:14;;;;;;;26.27;10.30;;;21.90;50.20;;;;;;6320416;28;20644;-68
2021/05/19 07:53:15;;;;;;;17.73;8.93;;;21.90;50.40;;;;;;6319269;28;20032;-68
2021/05/19 07:56:21;;;;;;;14.90;7.93;;;21.90;49.60;;;;;;6309345;28;20043;-68
2021/05/19 07:59:26;;;;;;;14.02;6.40;;;21.90;47.70;;;;;;6295047;28;20024;-68
2021/05/19 08:02:26;;;;;;;11.90;6.88;;;21.80;46.50;;;;;;6295360;28;20021;-68
2021/05/19 08:05:27;;;;;;;11.98;6.65;;;21.80;45.50;;;;;;6304629;28;20435;-68
2021/05/19 08:08:27;;;;;;;8.95;4.45;;;21.80;45.30;;;;;;6319381;28;20059;-68
2021/05/19 08:11:28;;;;;;;7.55;4.05;;;21.80;45.20;;;;;;6305164;28;20021;-67
2021/05/19 08:14:32;;;;;;;12.77;5.05;;;21.80;46.00;;;;;;6295435;28;20031;-67
2021/05/19 08:17:32;;;;;;;9.13;4.95;;;21.80;47.00;;;;;;6281212;28;20017;-68
2021/05/19 08:20:33;;;;;;;15.45;5.13;;;21.80;47.10;;;;;;6284961;28;20038;-68
2021/05/19 08:23:34;;;;;;;6.82;4.70;;;21.90;47.40;;;;;;6293710;28;20050;-67
2021/05/19 08:26:35;;;;;;;11.27;4.63;;;21.90;48.20;;;;;;6309538;28;20032;-67
2021/05/19 08:29:36;;;;;;;9.15;5.18;;;21.90;48.60;;;;;;6309960;28;20055;-67
2021/05/19 08:32:37;;;;;;;6.53;4.00;;;21.90;48.70;;;;;;6316537;28;20030;-67
2021/05/19 08:35:37;;;;;;;8.90;4.70;;;21.90;48.90;;;;;;6304805;28;20473;-67
2021/05/19 08:38:38;;;;;;;8.05;4.70;;;21.90;48.90;;;;;;6293116;28;20082;-67
2021/05/19 08:41:44;;;;;;;11.23;5.55;;;21.90;48.90;;;;;;6294328;28;20362;-68
2021/05/19 08:44:47;;;;;;;10.00;4.43;;;21.90;50.60;;;;;;6295035;28;20032;-67
2021/05/19 08:47:57;;;;;;;9.05;4.45;;;22.00;49.60;;;;;;6275321;28;20143;-68
2021/05/19 08:50:58;;;;;;;7.97;4.55;;;22.10;49.70;;;;;;6299649;28;20131;-68
2021/05/19 08:53:59;;;;;;;7.40;4.50;;;22.10;49.90;;;;;;6319668;28;20028;-67
2021/05/19 08:56:59;;;;;;;7.45;4.18;;;22.10;49.80;;;;;;6308258;28;20028;-69
2021/05/19 09:00:00;;;;;;;14.00;4.35;;;22.10;49.60;;;;;;6294311;28;20497;-65
2021/05/19 09:03:08;;;;;;;6.75;3.17;;;22.10;48.70;;;;;;6318418;28;20358;-70
2021/05/19 09:06:10;;;;;;;7.78;3.55;;;22.00;48.30;;;;;;6311526;28;20104;-68
2021/05/19 09:09:21;;;;;;;4.95;2.70;;;22.00;45.90;;;;;;6292231;28;20051;-68
2021/05/19 09:12:22;;;;;;;6.95;3.40;;;21.90;45.00;;;;;;6293537;28;20032;-70
2021/05/19 09:15:23;;;;;;;5.43;2.95;;;22.00;45.60;;;;;;6294555;28;20032;-68
2021/05/19 09:18:25;;;;;;;7.60;2.90;;;21.90;45.10;;;;;;6311046;28;20043;-68
2021/05/19 09:21:39;;;;;;;7.10;2.95;;;21.90;45.40;;;;;;6315223;28;20373;-68
2021/05/19 09:24:41;;;;;;;6.82;3.00;;;21.90;46.30;;;;;;6292890;28;20041;-68
2021/05/19 09:27:45;;;;;;;4.82;2.78;;;21.90;46.50;;;;;;6305710;28;20047;-68
2021/05/19 09:30:47;;;;;;;7.35;3.08;;;21.90;47.30;;;;;;6318673;28;20376;-68
2021/05/19 09:33:50;;;;;;;5.43;2.80;;;21.90;48.00;;;;;;6302672;28;20022;-68
2021/05/19 09:36:51;;;;;;;4.32;2.63;;;21.90;48.20;;;;;;6298356;28;20358;-68
2021/05/19 09:39:56;;;;;;;6.72;2.70;;;21.90;48.50;;;;;;6294978;28;20048;-68
2021/05/19 09:43:02;;;;;;;;;;;21.90;48.50;;;;;;6306573;28;20098;-68
2021/05/19 09:46:03;;;;;;;4.82;2.72;;;21.90;48.70;;;;;;6317257;28;19943;-68
2021/05/19 09:49:20;;;;;;;4.53;3.10;;;21.90;48.80;;;;;;6309555;28;20035;-71
2021/05/19 09:52:20;;;;;;;5.18;3.53;;;21.90;48.90;;;;;;6299340;28;20040;-68
2021/05/19 09:55:21;;;;;;;6.32;3.10;;;21.90;49.00;;;;;;6318771;28;20035;-68
2021/05/19 09:58:40;;;;;;;6.32;3.40;;;21.90;49.10;;;;;;6308924;28;20024;-68
2021/05/19 10:01:41;;;;;;;7.72;3.40;;;21.90;49.10;;;;;;6294334;28;20025;-68
2021/05/19 10:04:51;;;;;;;4.45;3.25;;;21.90;49.20;;;;;;6297843;28;20485;-68
2021/05/19 10:07:55;;;;;;;5.90;3.33;;;21.90;49.30;;;;;;6307545;28;20423;-68
2021/05/19 10:11:05;;;;;;;8.98;3.90;;;21.90;49.30;;;;;;6304628;28;20040;-68
2021/05/19 10:14:09;;;;;;;7.90;3.75;;;21.90;49.40;;;;;;6294807;28;20150;-68
2021/05/19 10:17:12;;;;;;;5.78;3.78;;;21.90;49.50;;;;;;6299909;28;20016;-68
2021/05/19 10:20:17;;;;;;;7.93;4.18;;;21.90;49.50;;;;;;6322981;28;20067;-68
2021/05/19 10:23:39;;;;;;;7.25;4.00;;;21.90;49.60;;;;;;6311661;28;20058;-68
2021/05/19 10:27:07;;;;;;;8.63;3.90;;;21.90;49.60;;;;;;6286866;28;20029;-68
2021/05/19 10:30:08;;;;;;;8.38;3.85;;;21.90;49.70;;;;;;6298934;28;20062;-68
2021/05/19 10:33:38;;;;;;;6.75;3.80;;;21.90;49.70;;;;;;6306292;28;20469;-68
2021/05/19 10:36:40;;;;;;;9.10;3.70;;;21.90;49.70;;;;;;6321328;28;20036;-68
2021/05/19 10:39:41;;;;;;;6.00;3.67;;;21.90;49.80;;;;;;6319757;28;20052;-68
2021/05/19 10:42:52;;;;;;;7.55;3.63;;;21.90;49.80;;;;;;6322471;28;20030;-68
2021/05/19 10:45:59;;;;;;;8.18;3.72;;;21.90;49.80;;;;;;6322561;28;20067;-68
2021/05/19 10:49:00;;;;;;;9.23;3.92;;;21.90;49.80;;;;;;6321740;28;20097;-68
2021/05/19 10:58:58;;;;;;;8.32;3.90;;;21.90;49.90;;;;;;6302512;28;20024;-67
2021/05/19 11:01:58;;;;;;;7.07;3.60;;;21.90;49.90;;;;;;6322179;28;20544;-67
2021/05/19 11:05:12;;;;;;;5.45;3.10;;;21.90;49.80;;;;;;6321593;28;20031;-67
2021/05/19 11:08:18;;;;;;;10.90;3.83;;;21.90;50.00;;;;;;6301294;28;20029;-67
2021/05/19 11:11:28;;;;;;;6.85;3.45;;;21.90;50.10;;;;;;6303840;28;20031;-67
2021/05/19 11:14:42;;;;;;;7.13;3.47;;;21.90;50.10;;;;;;6321065;28;20493;-67
2021/05/19 11:20:44;;;;;;;6.47;3.83;;;21.90;50.00;;;;;;6291546;28;20125;-67
2021/05/19 11:24:07;;;;;;;6.55;2.90;;;21.90;50.10;;;;;;6298653;28;20365;-66
2021/05/19 11:27:15;;;;;;;5.38;2.92;;;21.90;50.00;;;;;;6317563;28;20179;-66
2021/05/19 11:30:25;;;;;;;4.70;2.83;;;21.90;50.10;;;;;;6313645;28;20059;-67
2021/05/19 11:33:26;;;;;;;5.93;3.35;;;21.90;50.10;;;;;;6321345;28;20069;-67
2021/05/19 11:36:54;;;;;;;6.43;3.15;;;21.90;50.20;;;;;;6321145;28;20496;-65
2021/05/19 11:39:57;;;;;;;6.93;3.05;;;21.90;50.20;;;;;;6320743;28;20388;-67
2021/05/19 11:42:58;;;;;;;4.63;2.70;;;21.90;50.20;;;;;;6321699;28;20036;-67
2021/05/19 11:45:59;;;;;;;5.57;2.90;;;21.90;50.20;;;;;;6293777;28;20041;-67
2021/05/19 11:49:11;;;;;;;6.53;3.30;;;21.90;50.20;;;;;;6295594;28;20071;-66
2021/05/19 11:52:12;;;;;;;4.03;2.65;;;21.90;50.20;;;;;;6292726;28;20480;-66
2021/05/19 11:55:26;;;;;;;4.93;2.60;;;21.90;50.20;;;;;;6297782;28;20050;-66
2021/05/19 11:58:33;;;;;;;4.70;2.95;;;21.90;50.20;;;;;;6291963;28;20107;-67
2021/05/19 12:01:34;;;;;;;6.00;3.00;;;21.90;50.20;;;;;;6285111;28;20422;-67
2021/05/19 12:04:39;;;;;;;3.92;2.63;;;21.90;50.30;;;;;;6281057;28;20039;-66
2021/05/19 12:07:40;;;;;;;7.47;2.70;;;21.90;50.90;;;;;;6304399;28;20097;-67
2021/05/19 12:10:43;;;;;;;6.05;2.85;;;21.90;50.00;;;;;;6289047;28;20529;-67
2021/05/19 12:14:05;;;;;;;3.95;2.60;;;21.90;50.20;;;;;;6286111;28;20028;-67
2021/05/19 12:17:07;;;;;;;4.80;2.50;;;21.90;50.20;;;;;;6307198;28;20326;-67
2021/05/19 12:20:19;;;;;;;4.63;2.60;;;21.90;50.30;;;;;;6299074;28;20024;-67
2021/05/19 12:23:21;;;;;;;3.80;2.53;;;21.90;50.30;;;;;;6295161;28;20051;-67
2021/05/19 12:26:25;;;;;;;4.13;2.75;;;21.90;50.30;;;;;;6305022;28;20024;-67
2021/05/19 12:29:44;;;;;;;6.95;2.85;;;21.90;50.30;;;;;;6293698;28;20447;-67
2021/05/19 12:32:59;;;;;;;5.03;3.05;;;21.90;50.40;;;;;;6309886;28;20121;-68
2021/05/19 12:36:00;;;;;;;7.60;3.08;;;21.90;50.40;;;;;;6305509;28;20039;-66
2021/05/19 12:39:04;;;;;;;4.90;3.03;;;21.90;50.40;;;;;;6299517;28;20043;-67
2021/05/19 12:42:14;;;;;;;8.90;3.27;;;21.90;50.40;;;;;;6313548;28;20574;-67
2021/05/19 12:45:21;;;;;;;4.57;3.08;;;21.90;50.50;;;;;;6297916;28;20028;-67
2021/05/19 12:48:25;;;;;;;6.35;3.80;;;21.90;50.40;;;;;;6305599;28;20040;-67
2021/05/19 12:51:26;;;;;;;5.30;3.47;;;21.90;50.40;;;;;;6314354;28;20485;-67
2021/05/19 12:54:34;;;;;;;6.30;3.83;;;21.90;50.40;;;;;;6318812;28;20347;-68
2021/05/19 12:57:35;;;;;;;10.57;4.80;;;21.90;50.50;;;;;;6299704;28;20063;-67
2021/05/19 13:00:53;;;;;;;6.00;3.50;;;21.90;50.50;;;;;;6293589;28;20092;-68
2021/05/19 13:03:54;;;;;;;5.57;3.58;;;21.90;50.50;;;;;;6293103;28;20409;-67
2021/05/19 13:06:56;;;;;;;7.78;4.22;;;21.90;50.50;;;;;;6304279;28;20039;-67
2021/05/19 13:10:36;;;;;;;8.35;4.88;;;21.90;50.50;;;;;;6291324;28;20107;-67
2021/05/19 13:13:40;;;;;;;7.25;4.28;;;21.90;50.60;;;;;;6313584;28;20669;-68
2021/05/19 13:16:44;;;;;;;8.63;4.28;;;22.00;50.60;;;;;;6316337;28;20493;-69
2021/05/19 13:20:06;;;;;;;13.07;4.95;;;21.90;50.40;;;;;;6298892;28;20037;-67
2021/05/19 13:23:09;;;;;;;8.30;4.72;;;21.90;46.80;;;;;;6298164;28;20078;-67
2021/05/19 13:26:10;;;;;;;8.45;4.90;;;21.90;48.50;;;;;;6297915;28;20028;-66
2021/05/19 13:29:19;;;;;;;8.55;3.85;;;22.00;49.30;;;;;;6293173;28;20029;-67
2021/05/19 13:39:11;;;;;;;6.45;4.03;;;22.00;49.20;;;;;;6313012;28;20037;-67
2021/05/19 13:42:13;;;;;;;8.90;4.97;;;22.00;49.90;;;;;;6310292;28;20020;-67
2021/05/19 13:45:14;;;;;;;7.00;4.82;;;22.00;49.90;;;;;;6304204;28;20033;-67
2021/05/19 13:48:15;;;;;;;8.10;4.97;;;22.00;50.00;;;;;;6315848;28;20492;-67
2021/05/19 13:51:15;;;;;;;8.85;4.28;;;22.00;50.10;;;;;;6296047;28;20044;-67
2021/05/19 13:54:17;;;;;;;7.53;4.30;;;22.00;50.10;;;;;;6309820;28;20474;-67
2021/05/19 13:57:17;;;;;;;9.25;5.40;;;22.00;50.20;;;;;;6296182;28;20025;-67
2021/05/19 14:00:18;;;;;;;10.93;5.97;;;22.00;50.00;;;;;;6302709;28;20067;-72
2021/05/19 14:03:19;;;;;;;9.38;5.90;;;22.00;50.00;;;;;;6304161;28;20131;-68
2021/05/19 14:06:19;;;;;;;9.07;5.63;;;21.90;49.90;;;;;;6304265;28;20031;-70
2021/05/19 14:09:20;;;;;;;11.10;5.05;;;21.90;49.50;;;;;;6309925;28;20020;-71
2021/05/19 14:12:37;;;;;;;6.93;3.95;;;21.90;49.20;;;;;;6296119;28;20028;-70
2021/05/19 14:15:49;;;;;;;8.02;3.72;;;21.80;48.50;;;;;;6308715;28;20020;-70
2021/05/19 14:19:04;;;;;;;6.22;3.20;;;21.80;47.50;;;;;;6301527;28;20104;-70
2021/05/19 14:28:42;;;;;;;3.67;2.53;;;21.70;46.30;;;;;;6309773;28;20028;-66
2021/05/19 14:31:43;;;;;;;4.18;2.22;;;21.70;47.10;;;;;;6297076;28;20118;-66
2021/05/19 14:34:47;;;;;;;3.65;2.20;;;21.60;47.70;;;;;;6310478;28;20028;-73
2021/05/19 14:45:37;;;;;;;4.72;2.05;;;21.60;44.30;;;;;;6310206;28;20020;-67
2021/05/19 14:48:37;;;;;;;3.28;1.60;;;21.60;46.60;;;;;;6299169;28;20036;-67
2021/05/19 15:00:56;;;;;;;2.17;1.10;;;21.50;46.00;;;;;;6303707;28;20024;-67
2021/05/19 15:03:57;;;;;;;2.95;1.30;;;21.50;45.60;;;;;;6317175;28;20045;-67
2021/05/19 15:06:57;;;;;;;2.20;0.90;;;21.50;45.40;;;;;;6298095;28;20074;-67
2021/05/19 15:09:58;;;;;;;2.25;1.10;;;21.50;41.90;;;;;;6315298;28;20145;-67
2021/05/19 15:12:59;;;;;;;0.93;0.82;;;21.60;41.60;;;;;;6298596;28;20035;-67
2021/05/19 15:15:59;;;;;;;2.58;0.85;;;21.60;41.60;;;;;;6301377;28;20071;-67
2021/05/19 15:19:01;;;;;;;1.52;0.70;;;21.70;41.90;;;;;;6315546;28;20104;-67
2021/05/19 15:22:01;;;;;;;1.55;0.85;;;21.70;42.20;;;;;;6292884;28;20029;-67
2021/05/19 15:25:03;;;;;;;1.98;1.10;;;21.70;42.50;;;;;;6300761;28;20500;-67
2021/05/19 15:28:03;;;;;;;0.77;0.68;;;21.70;42.60;;;;;;6298236;28;20025;-71
2021/05/19 15:31:04;;;;;;;1.30;0.90;;;21.70;43.00;;;;;;6313883;28;20028;-70
2021/05/19 15:34:05;;;;;;;3.17;1.05;;;21.70;43.20;;;;;;6304637;28;20503;-70
2021/05/19 15:37:06;;;;;;;1.92;1.00;;;21.70;41.30;;;;;;6300441;28;20029;-71
2021/05/19 15:40:07;;;;;;;2.55;0.70;;;21.70;40.80;;;;;;6308931;28;20078;-71
2021/05/19 15:43:12;;;;;;;1.55;0.90;;;21.70;41.10;;;;;;6287918;28;20035;-70
2021/05/19 15:46:13;;;;;;;1.45;1.10;;;21.70;40.40;;;;;;6298139;28;20028;-69
2021/05/19 15:49:14;;;;;;;1.02;0.68;;;21.70;40.30;;;;;;6301336;28;20070;-70
2021/05/19 15:52:15;;;;;;;1.73;0.90;;;21.70;41.00;;;;;;6304752;28;20497;-70
2021/05/19 15:55:15;;;;;;;0.90;0.70;;;21.70;40.00;;;;;;6313648;28;20016;-70
2021/05/19 15:58:16;;;;;;;2.28;0.90;;;21.70;39.60;;;;;;6298831;28;20099;-70
2021/05/19 16:01:20;;;;;;;3.80;0.98;;;21.70;39.80;;;;;;6302153;28;20023;-70
2021/05/19 16:04:21;;;;;;;1.85;1.10;;;21.70;40.40;;;;;;6304619;28;20428;-69
2021/05/19 16:07:22;;;;;;;0.93;0.77;;;21.70;39.70;;;;;;6301215;28;20020;-67
2021/05/19 16:10:23;;;;;;;4.28;1.02;;;21.70;39.50;;;;;;6289537;28;20036;-67
2021/05/19 16:13:23;;;;;;;2.17;1.00;;;21.70;40.80;;;;;;6289119;28;20056;-66
2021/05/19 16:16:25;;;;;;;1.05;0.80;;;21.70;42.20;;;;;;6312164;28;20067;-67
2021/05/19 16:19:26;;;;;;;1.92;1.20;;;21.70;42.70;;;;;;6301555;28;20027;-67
2021/05/19 16:22:27;;;;;;;1.67;0.95;;;21.70;43.30;;;;;;6311341;28;20055;-67
2021/05/19 16:25:30;;;;;;;1.35;1.02;;;21.70;43.50;;;;;;6307369;28;20119;-67
2021/05/19 16:28:31;;;;;;;2.08;0.95;;;21.70;43.80;;;;;;6296706;28;20020;-67
2021/05/19 16:31:32;;;;;;;1.67;1.13;;;21.70;44.00;;;;;;6312441;28;20157;-67
2021/05/19 16:34:32;;;;;;;3.20;1.15;;;21.70;44.20;;;;;;6298813;28;20107;-67